Time;durP1;ratioP1;P1;durP2;ratioP2;P2;SDS_P1;SDS_P2;PMS_P1;PMS_P2;Temp;Humidity;BMP_temperature;BMP_pressure;BME280_temperature;BME280_humidity;BME280_pressure;Samples;Min_cycle;Max_cycle;Signal;HPM_P1;HPM_P2
2022/04/16 00:00:03;;;;;;;37.00;20.95;;;6.80;99.90;;;;;;4997257;28;20093;-83
2022/04/16 00:02:29;;;;;;;34.25;22.63;;;6.70;99.90;;;;;;5014635;28;20091;-83
2022/04/16 00:04:55;;;;;;;39.33;22.67;;;6.50;99.90;;;;;;5014397;28;20054;-83
2022/04/16 00:07:20;;;;;;;44.42;23.48;;;6.40;99.90;;;;;;5014483;28;20049;-82
2022/04/16 00:09:46;;;;;;;42.90;22.75;;;6.20;99.90;;;;;;5014146;28;20574;-83
2022/04/16 00:12:12;;;;;;;42.15;23.25;;;6.10;99.90;;;;;;5013067;28;20555;-82
2022/04/16 00:14:38;;;;;;;40.53;22.45;;;5.90;99.90;;;;;;5013928;28;20064;-82
2022/04/16 00:17:04;;;;;;;45.65;23.77;;;5.80;99.90;;;;;;5013259;28;20070;-82
2022/04/16 00:19:32;;;;;;;50.90;24.50;;;5.80;99.90;;;;;;5013705;28;20042;-83
2022/04/16 00:22:00;;;;;;;46.10;23.98;;;5.70;99.90;;;;;;5014059;28;20042;-82
2022/04/16 00:24:27;;;;;;;48.92;24.48;;;5.50;99.90;;;;;;5013820;28;20054;-82
2022/04/16 00:26:52;;;;;;;44.78;24.15;;;5.40;99.90;;;;;;5014623;28;20045;-82
2022/04/16 00:29:18;;;;;;;49.20;25.45;;;5.30;99.90;;;;;;5012904;28;20445;-83
2022/04/16 00:31:45;;;;;;;54.20;25.40;;;5.20;99.90;;;;;;5014008;28;20129;-83
2022/04/16 00:34:14;;;;;;;53.42;26.40;;;5.30;99.90;;;;;;5013989;28;20054;-82
2022/04/16 00:36:43;;;;;;;56.00;26.25;;;5.40;99.90;;;;;;5014081;28;20045;-82
2022/04/16 00:39:09;;;;;;;53.50;26.25;;;5.40;99.90;;;;;;5013050;28;20050;-82
2022/04/16 00:41:35;;;;;;;53.15;25.90;;;5.50;99.90;;;;;;5013825;28;20488;-83
2022/04/16 00:44:01;;;;;;;57.60;27.33;;;5.50;99.90;;;;;;5013630;28;20049;-82
2022/04/16 00:46:26;;;;;;;57.55;28.30;;;5.50;99.90;;;;;;5013844;28;20407;-82
2022/04/16 00:48:52;;;;;;;83.18;29.52;;;5.40;99.90;;;;;;5013671;28;20161;-83
2022/04/16 00:51:18;;;;;;;48.47;27.30;;;5.30;99.90;;;;;;5012641;28;20046;-83
2022/04/16 00:53:43;;;;;;;67.57;28.20;;;5.20;99.90;;;;;;5013921;28;20046;-82
2022/04/16 00:56:12;;;;;;;63.60;29.45;;;5.10;99.90;;;;;;5013613;28;20045;-82
2022/04/16 00:58:39;;;;;;;61.65;29.55;;;5.00;99.90;;;;;;5013537;28;20049;-82
2022/04/16 01:01:05;;;;;;;67.10;28.95;;;5.00;99.90;;;;;;5013000;28;20489;-82
2022/04/16 01:03:30;;;;;;;70.75;29.23;;;4.90;99.90;;;;;;5015657;28;20088;-82
2022/04/16 01:05:56;;;;;;;62.38;28.30;;;4.80;99.90;;;;;;5017717;28;20073;-82
2022/04/16 01:08:24;;;;;;;63.83;29.38;;;4.80;99.90;;;;;;5017771;28;20042;-83
2022/04/16 01:10:50;;;;;;;71.32;31.48;;;4.80;99.90;;;;;;5017899;28;20042;-82
2022/04/16 01:13:18;;;;;;;72.22;30.55;;;4.90;99.90;;;;;;5017608;28;20396;-82
2022/04/16 01:15:44;;;;;;;76.35;32.45;;;4.90;99.90;;;;;;5018234;28;20350;-83
2022/04/16 01:18:10;;;;;;;74.80;31.15;;;4.90;99.90;;;;;;5017859;28;20054;-82
2022/04/16 01:20:39;;;;;;;73.63;31.73;;;4.90;99.90;;;;;;5017479;28;20038;-82
2022/04/16 01:23:05;;;;;;;86.82;34.00;;;4.90;99.90;;;;;;5017288;28;20578;-83
2022/04/16 01:25:33;;;;;;;83.18;33.00;;;4.80;99.90;;;;;;5017606;28;20095;-83
2022/04/16 01:28:01;;;;;;;79.85;32.40;;;4.70;99.90;;;;;;5017270;28;20034;-83
2022/04/16 01:30:28;;;;;;;82.25;33.20;;;4.60;99.90;;;;;;5017508;28;20107;-83
2022/04/16 01:32:54;;;;;;;77.47;33.42;;;4.50;99.90;;;;;;5016494;28;20061;-83
2022/04/16 01:35:20;;;;;;;102.20;35.67;;;4.50;99.90;;;;;;5015999;28;20025;-82
2022/04/16 01:37:45;;;;;;;93.95;36.22;;;4.50;99.90;;;;;;5017657;28;20049;-83
2022/04/16 01:40:14;;;;;;;101.78;36.83;;;4.60;99.90;;;;;;5015809;28;20046;-83
2022/04/16 01:42:43;;;;;;;98.53;37.45;;;4.50;99.90;;;;;;5016703;28;20061;-83
2022/04/16 01:45:11;;;;;;;100.53;35.95;;;4.50;99.90;;;;;;5016927;28;20500;-82
2022/04/16 01:47:39;;;;;;;94.50;36.20;;;4.40;99.90;;;;;;5017196;28;20461;-82
2022/04/16 01:50:07;;;;;;;98.80;37.60;;;4.40;99.90;;;;;;5017097;28;20468;-83
2022/04/16 01:52:38;;;;;;;107.68;40.78;;;4.30;99.90;;;;;;5016904;28;20042;-83
2022/04/16 01:55:05;;;;;;;119.95;40.55;;;4.30;99.90;;;;;;5016701;28;20053;-83
2022/04/16 01:57:30;;;;;;;110.72;40.13;;;4.30;99.90;;;;;;5016722;28;20049;-82
2022/04/16 01:59:56;;;;;;;110.85;38.30;;;4.40;99.90;;;;;;5016622;28;20050;-83
2022/04/16 02:02:21;;;;;;;121.10;40.55;;;4.10;99.90;;;;;;5017164;28;20045;-82
2022/04/16 02:04:47;;;;;;;115.32;40.08;;;4.20;99.90;;;;;;5016594;28;20050;-83
2022/04/16 02:07:13;;;;;;;106.10;40.78;;;4.50;99.90;;;;;;5015329;28;20041;-83
2022/04/16 02:09:40;;;;;;;123.82;42.95;;;4.30;99.90;;;;;;5016733;28;20045;-83
2022/04/16 02:12:06;;;;;;;122.50;44.05;;;4.40;99.90;;;;;;5016686;28;20038;-83
2022/04/16 02:14:33;;;;;;;126.55;43.70;;;4.40;99.90;;;;;;5014633;28;20054;-83
2022/04/16 02:16:59;;;;;;;116.88;43.80;;;4.60;99.90;;;;;;5016427;28;20073;-83
2022/04/16 02:19:25;;;;;;;126.18;44.05;;;5.00;99.90;;;;;;5016959;28;20125;-83
2022/04/16 02:21:51;;;;;;;123.60;43.67;;;5.00;99.90;;;;;;5016215;28;20049;-83
2022/04/16 02:24:19;;;;;;;124.68;44.45;;;5.20;99.90;;;;;;5016057;28;20412;-82
2022/04/16 02:26:45;;;;;;;128.00;46.17;;;5.30;99.90;;;;;;5015619;28;20038;-83
2022/04/16 02:29:11;;;;;;;142.68;47.55;;;5.50;99.90;;;;;;5016666;28;20048;-83
2022/04/16 02:31:37;;;;;;;129.70;48.35;;;5.60;99.90;;;;;;5016526;28;20041;-83
2022/04/16 02:34:05;;;;;;;122.57;47.70;;;5.70;99.90;;;;;;5015954;28;20037;-83
2022/04/16 02:36:31;;;;;;;130.68;47.30;;;5.80;99.90;;;;;;5016016;28;20416;-82
2022/04/16 02:38:58;;;;;;;127.50;46.05;;;5.70;99.90;;;;;;5016077;28;20065;-83
2022/04/16 02:41:24;;;;;;;120.00;45.55;;;5.80;99.90;;;;;;5014514;28;20500;-82
2022/04/16 02:43:50;;;;;;;108.22;42.83;;;5.90;99.90;;;;;;5015869;28;20054;-82
2022/04/16 02:49:00;;;;;;;110.35;43.38;;;6.00;99.90;;;;;;5015601;28;20081;-82
2022/04/16 02:51:26;;;;;;;100.47;41.65;;;6.20;99.90;;;;;;5015179;28;20066;-82
2022/04/16 02:53:52;;;;;;;102.45;43.38;;;6.20;99.90;;;;;;5015606;28;20130;-82
2022/04/16 02:56:17;;;;;;;93.35;40.92;;;6.30;99.90;;;;;;5015602;28;20084;-83
2022/04/16 02:58:43;;;;;;;99.25;40.70;;;6.40;99.90;;;;;;5014448;28;20049;-83
2022/04/16 03:01:09;;;;;;;91.07;38.92;;;6.50;99.90;;;;;;5015620;28;20057;-82
2022/04/16 03:03:35;;;;;;;93.50;42.80;;;6.50;99.90;;;;;;5015748;28;20022;-83
2022/04/16 03:06:00;;;;;;;93.13;39.75;;;6.60;99.90;;;;;;5013972;28;20077;-83
2022/04/16 03:08:26;;;;;;;84.70;41.08;;;6.70;99.90;;;;;;5015118;28;20088;-82
2022/04/16 03:10:52;;;;;;;94.38;42.40;;;6.80;99.90;;;;;;5013442;28;20046;-82
2022/04/16 03:13:19;;;;;;;88.57;41.10;;;6.90;99.90;;;;;;5015575;28;20038;-82
2022/04/16 03:18:29;;;;;;;74.55;39.83;;;7.00;99.90;;;;;;5015099;28;20050;-82
2022/04/16 03:20:57;;;;;;;74.68;36.85;;;7.00;99.90;;;;;;5013678;28;20045;-82
2022/04/16 03:23:23;;;;;;;79.38;38.50;;;7.10;99.90;;;;;;5014954;28;20061;-82
2022/04/16 03:25:48;;;;;;;83.18;38.88;;;7.10;99.90;;;;;;5014302;28;20033;-82
2022/04/16 03:28:15;;;;;;;73.57;39.00;;;7.20;99.90;;;;;;5014884;28;20045;-82
2022/04/16 03:30:41;;;;;;;74.68;36.25;;;7.20;99.90;;;;;;5014682;28;20484;-81
2022/04/16 03:33:09;;;;;;;67.45;37.92;;;7.30;99.90;;;;;;5014768;28;20086;-82
2022/04/16 03:35:35;;;;;;;68.47;36.33;;;7.30;99.90;;;;;;5014492;28;20046;-82
2022/04/16 03:38:01;;;;;;;73.20;38.40;;;7.40;99.90;;;;;;5014947;28;20191;-82
2022/04/16 03:40:27;;;;;;;73.03;38.22;;;7.30;99.90;;;;;;5015170;28;20034;-83
2022/04/16 03:43:01;;;;;;;71.13;38.22;;;7.30;99.90;;;;;;5014956;28;20578;-83
2022/04/16 03:45:29;;;;;;;61.72;35.80;;;7.40;99.90;;;;;;5014734;28;20400;-82
2022/04/16 03:47:56;;;;;;;63.78;36.85;;;7.30;99.90;;;;;;5014533;28;20502;-82
2022/04/16 03:50:24;;;;;;;68.38;38.50;;;7.30;99.90;;;;;;5014448;28;20050;-82
2022/04/16 03:52:51;;;;;;;63.90;37.00;;;7.30;99.90;;;;;;5014585;28;20056;-82
2022/04/16 04:00:52;;;;;;;64.07;37.78;;;7.30;99.90;;;;;;5014797;28;20042;-82
2022/04/16 04:03:18;;;;;;;66.93;37.88;;;7.30;99.90;;;;;;5013424;28;20045;-82
2022/04/16 04:05:53;;;;;;;64.95;37.42;;;7.40;99.90;;;;;;5014710;28;20042;-82
2022/04/16 04:08:19;;;;;;;66.13;36.42;;;7.40;99.90;;;;;;5014649;28;20042;-82
2022/04/16 04:10:46;;;;;;;65.07;36.10;;;7.30;99.90;;;;;;5014056;28;20048;-82
2022/04/16 04:13:13;;;;;;;63.45;36.47;;;7.30;99.90;;;;;;5013862;28;20050;-83
2022/04/16 04:15:39;;;;;;;62.28;34.83;;;7.30;99.90;;;;;;5014419;28;20068;-83
2022/04/16 04:18:05;;;;;;;65.35;37.53;;;7.40;99.90;;;;;;5014389;28;20476;-83
2022/04/16 04:20:30;;;;;;;70.00;40.38;;;7.30;99.90;;;;;;5013853;28;20085;-82
2022/04/16 04:22:56;;;;;;;62.13;35.42;;;7.30;99.90;;;;;;5014087;28;20040;-82
2022/04/16 04:25:22;;;;;;;65.05;36.40;;;7.30;99.90;;;;;;5014429;28;20076;-82
2022/04/16 04:27:48;;;;;;;65.07;36.35;;;7.30;99.90;;;;;;5014101;28;20045;-82
2022/04/16 04:30:13;;;;;;;62.75;39.15;;;7.40;99.90;;;;;;5013959;28;20050;-82
2022/04/16 04:32:39;;;;;;;59.40;37.05;;;7.40;99.90;;;;;;5012856;28;20125;-82
2022/04/16 04:35:06;;;;;;;55.83;34.17;;;7.40;99.90;;;;;;5013773;28;20069;-83
2022/04/16 04:37:32;;;;;;;54.30;33.50;;;7.40;99.90;;;;;;5013261;28;20400;-82
2022/04/16 04:39:57;;;;;;;57.05;33.95;;;7.40;99.90;;;;;;5014144;28;20081;-83
2022/04/16 04:42:34;;;;;;;59.72;35.00;;;7.40;99.90;;;;;;5013425;28;20092;-83
2022/04/16 04:45:06;;;;;;;;;;;7.40;99.90;;;;;;5014143;28;20072;-82
2022/04/16 04:47:31;;;;;;;56.03;30.83;;;7.50;99.90;;;;;;5012548;28;19928;-82
2022/04/16 04:49:57;;;;;;;61.95;32.53;;;7.50;99.90;;;;;;5013889;28;20046;-83
2022/04/16 04:52:26;;;;;;;61.30;34.58;;;7.50;99.90;;;;;;5013595;28;20050;-82
2022/04/16 04:54:55;;;;;;;52.83;30.48;;;7.50;99.90;;;;;;5013758;28;20523;-82
2022/04/16 04:57:21;;;;;;;56.85;31.98;;;7.50;99.90;;;;;;5013259;28;20134;-82
2022/04/16 04:59:50;;;;;;;52.83;30.15;;;7.50;99.90;;;;;;5028771;28;20493;-83
2022/04/16 05:02:16;;;;;;;49.40;30.48;;;7.50;99.90;;;;;;5013667;28;20113;-83
2022/04/16 05:04:42;;;;;;;51.17;30.75;;;7.50;99.90;;;;;;5013545;28;20567;-83
2022/04/16 05:07:09;;;;;;;45.75;28.38;;;7.50;99.90;;;;;;5013574;28;20077;-82
2022/04/16 05:09:36;;;;;;;41.35;26.35;;;7.50;99.90;;;;;;5013798;28;20061;-82
2022/04/16 05:12:01;;;;;;;42.28;25.33;;;7.50;99.90;;;;;;5013439;28;20073;-82
2022/04/16 05:14:27;;;;;;;40.63;25.63;;;7.50;99.90;;;;;;5013225;28;20086;-82
2022/04/16 05:16:52;;;;;;;42.13;24.40;;;7.50;99.90;;;;;;5012464;28;20071;-83
2022/04/16 05:19:18;;;;;;;41.83;26.20;;;7.50;99.90;;;;;;5013386;28;20080;-83
2022/04/16 05:21:43;;;;;;;39.67;25.70;;;7.50;99.90;;;;;;5013618;28;20084;-83
2022/04/16 05:24:10;;;;;;;38.70;23.10;;;7.50;99.90;;;;;;5013281;28;20041;-82
2022/04/16 05:26:37;;;;;;;41.67;24.48;;;7.50;99.90;;;;;;5013248;28;20108;-83
2022/04/16 05:29:03;;;;;;;30.92;17.38;;;7.60;99.90;;;;;;5013284;28;20037;-82
2022/04/16 05:31:29;;;;;;;29.55;17.33;;;7.50;99.90;;;;;;5013236;28;20128;-83
2022/04/16 05:36:40;;;;;;;23.38;13.93;;;7.70;99.90;;;;;;5013466;28;20455;-83
2022/04/16 05:39:05;;;;;;;23.80;14.43;;;7.70;99.90;;;;;;5013476;28;20099;-83
2022/04/16 05:41:34;;;;;;;25.35;15.63;;;7.70;99.90;;;;;;5012810;28;20408;-83
2022/04/16 05:44:01;;;;;;;21.52;12.50;;;7.70;99.90;;;;;;5012637;28;20061;-83
2022/04/16 05:46:26;;;;;;;24.92;14.85;;;7.70;99.90;;;;;;5013173;28;20095;-83
2022/04/16 05:48:52;;;;;;;25.42;14.63;;;7.80;99.90;;;;;;5013900;28;20121;-83
2022/04/16 05:51:18;;;;;;;25.75;15.30;;;7.80;99.90;;;;;;5017303;28;20053;-83
2022/04/16 05:53:46;;;;;;;21.23;12.68;;;7.80;99.90;;;;;;5017053;28;20145;-83
2022/04/16 05:56:13;;;;;;;23.88;15.38;;;7.80;99.90;;;;;;5016895;28;20042;-83
2022/04/16 05:58:39;;;;;;;26.77;13.80;;;7.80;99.90;;;;;;5016675;28;20104;-82
2022/04/16 06:01:07;;;;;;;28.40;15.43;;;7.90;99.90;;;;;;5015237;28;20049;-83
2022/04/16 06:03:34;;;;;;;26.65;14.40;;;7.90;99.90;;;;;;5017163;28;20053;-83
2022/04/16 06:06:01;;;;;;;22.75;12.10;;;8.00;99.90;;;;;;5016397;28;20048;-83
2022/04/16 06:08:26;;;;;;;26.50;13.52;;;8.10;99.90;;;;;;5016409;28;20381;-83
2022/04/16 06:10:52;;;;;;;22.92;13.43;;;8.10;99.90;;;;;;5016524;28;20048;-83
2022/04/16 06:13:18;;;;;;;24.02;12.82;;;8.10;99.90;;;;;;5015240;28;20053;-83
2022/04/16 06:15:43;;;;;;;20.15;12.68;;;8.10;99.90;;;;;;5016499;28;20038;-83
2022/04/16 06:18:10;;;;;;;24.08;14.02;;;8.20;99.90;;;;;;5016428;28;20046;-82
2022/04/16 06:20:39;;;;;;;23.58;11.93;;;8.30;99.90;;;;;;5016306;28;20125;-82
2022/04/16 06:23:06;;;;;;;21.27;11.95;;;8.80;99.90;;;;;;5015892;28;20046;-82
2022/04/16 06:25:31;;;;;;;17.90;9.45;;;9.20;99.90;;;;;;5016083;28;20048;-83
2022/04/16 06:27:57;;;;;;;18.08;9.35;;;9.30;99.90;;;;;;5016384;28;20034;-83
2022/04/16 06:30:23;;;;;;;16.95;10.05;;;9.70;99.90;;;;;;5014868;28;20089;-82
2022/04/16 06:32:49;;;;;;;18.45;9.77;;;10.00;99.90;;;;;;5016809;28;20038;-83
2022/04/16 06:35:14;;;;;;;14.75;7.88;;;10.00;99.90;;;;;;5016389;28;20536;-83
2022/04/16 06:37:41;;;;;;;17.15;9.38;;;9.60;99.90;;;;;;5015860;28;20116;-83
2022/04/16 06:40:08;;;;;;;14.80;9.23;;;9.60;99.90;;;;;;5015936;28;20041;-83
2022/04/16 06:42:34;;;;;;;17.55;9.25;;;9.70;99.90;;;;;;5015996;28;20058;-83
2022/04/16 06:45:00;;;;;;;12.93;7.28;;;10.10;99.90;;;;;;5016151;28;20061;-82
2022/04/16 06:47:29;;;;;;;16.08;7.80;;;9.90;99.90;;;;;;5016550;28;20037;-83
2022/04/16 06:49:55;;;;;;;12.85;7.45;;;10.20;99.90;;;;;;5015700;28;20042;-83
2022/04/16 06:52:20;;;;;;;13.02;6.30;;;10.20;99.90;;;;;;5016680;28;20095;-83
2022/04/16 06:54:47;;;;;;;15.07;7.45;;;10.70;99.90;;;;;;5015797;28;20396;-82
2022/04/16 06:57:13;;;;;;;12.45;6.95;;;10.90;99.90;;;;;;5015775;28;20046;-82
2022/04/16 06:59:39;;;;;;;12.13;6.47;;;10.80;99.90;;;;;;5015462;28;20057;-83
2022/04/16 07:02:06;;;;;;;12.25;5.25;;;10.60;99.90;;;;;;5014423;28;20499;-83
2022/04/16 07:04:32;;;;;;;8.40;4.30;;;10.90;99.90;;;;;;5015225;28;20045;-82
2022/04/16 07:06:58;;;;;;;9.32;5.13;;;11.30;98.10;;;;;;5015723;28;20408;-83
2022/04/16 07:09:24;;;;;;;8.88;4.20;;;11.60;94.40;;;;;;5015238;28;20066;-83
2022/04/16 07:11:49;;;;;;;9.90;4.38;;;11.70;89.10;;;;;;5015391;28;20492;-83
2022/04/16 07:14:15;;;;;;;8.73;4.90;;;11.50;90.80;;;;;;5016244;28;20042;-83
2022/04/16 07:16:41;;;;;;;17.67;6.50;;;11.40;95.50;;;;;;5015388;28;20049;-83
2022/04/16 07:19:06;;;;;;;9.70;5.20;;;11.20;94.90;;;;;;5015009;28;20105;-83
2022/04/16 07:21:35;;;;;;;12.43;6.55;;;11.70;96.50;;;;;;5015084;28;20126;-83
2022/04/16 07:24:01;;;;;;;12.85;7.07;;;11.80;94.00;;;;;;5014837;28;20038;-83
2022/04/16 07:26:27;;;;;;;17.52;9.63;;;12.20;96.20;;;;;;5030010;28;20044;-83
2022/04/16 07:28:53;;;;;;;13.88;8.00;;;12.20;99.90;;;;;;5015115;28;20107;-83
2022/04/16 07:31:18;;;;;;;14.45;8.02;;;12.40;98.30;;;;;;5015258;28;20116;-83
2022/04/16 07:33:44;;;;;;;13.88;8.23;;;12.50;98.50;;;;;;5015174;28;20040;-83
2022/04/16 07:36:09;;;;;;;14.00;8.00;;;12.40;96.40;;;;;;5014793;28;20042;-83
2022/04/16 07:38:35;;;;;;;13.75;8.00;;;12.40;99.90;;;;;;5014710;28;20042;-83
2022/04/16 07:41:02;;;;;;;13.07;7.55;;;12.10;96.90;;;;;;5014622;28;20049;-83
2022/04/16 07:43:28;;;;;;;11.63;6.22;;;11.60;98.50;;;;;;5014535;28;20141;-82
2022/04/16 07:45:54;;;;;;;15.55;7.32;;;12.00;97.40;;;;;;5014861;28;20050;-83
2022/04/16 07:48:20;;;;;;;14.27;7.15;;;12.10;97.60;;;;;;5013376;28;20109;-83
2022/04/16 07:50:46;;;;;;;11.63;6.47;;;12.00;96.50;;;;;;5013401;28;20050;-83
2022/04/16 07:53:12;;;;;;;14.00;7.20;;;11.70;96.40;;;;;;5014967;28;20057;-83
2022/04/16 07:55:37;;;;;;;11.73;5.68;;;11.90;96.10;;;;;;5014833;28;20038;-83
2022/04/16 07:58:03;;;;;;;9.55;5.65;;;12.50;95.20;;;;;;5014678;28;20060;-83
2022/04/16 08:00:29;;;;;;;10.63;5.25;;;13.30;84.90;;;;;;5014637;28;20053;-82
2022/04/16 08:02:54;;;;;;;8.30;5.18;;;12.90;80.90;;;;;;5014023;28;20123;-83
2022/04/16 08:05:20;;;;;;;8.65;4.68;;;12.00;85.70;;;;;;5015453;28;20061;-83
2022/04/16 08:07:46;;;;;;;8.77;5.03;;;12.00;79.20;;;;;;5014901;28;20042;-83
2022/04/16 08:10:13;;;;;;;9.27;4.53;;;11.40;87.00;;;;;;5014998;28;20061;-83
2022/04/16 08:12:38;;;;;;;9.32;4.30;;;11.90;80.90;;;;;;5014776;28;20180;-83
2022/04/16 08:15:06;;;;;;;7.57;3.67;;;12.30;78.30;;;;;;5014439;28;20038;-83
2022/04/16 08:17:32;;;;;;;7.95;3.80;;;12.40;71.00;;;;;;5014515;28;20069;-82
2022/04/16 08:19:57;;;;;;;8.23;4.00;;;12.30;72.50;;;;;;5013791;28;20038;-83
2022/04/16 08:22:23;;;;;;;7.97;3.72;;;12.30;69.20;;;;;;5013519;28;20132;-83
2022/04/16 08:27:34;;;;;;;5.78;3.42;;;12.90;51.60;;;;;;5013830;28;20046;-82
2022/04/16 08:30:00;;;;;;;7.85;4.25;;;12.80;56.10;;;;;;5014022;28;20045;-83
2022/04/16 08:32:25;;;;;;;6.95;3.53;;;13.50;54.50;;;;;;5014076;28;20053;-82
2022/04/16 08:34:51;;;;;;;7.95;3.15;;;13.40;45.80;;;;;;5013763;28;20412;-82
2022/04/16 08:37:17;;;;;;;8.85;3.42;;;13.40;30.40;;;;;;5013649;28;20409;-82
2022/04/16 08:39:42;;;;;;;5.38;3.08;;;13.10;35.90;;;;;;5014133;28;20050;-82
2022/04/16 08:42:08;;;;;;;7.07;3.25;;;12.90;40.50;;;;;;5013990;28;20542;-82
2022/04/16 08:44:37;;;;;;;8.20;3.30;;;13.30;41.70;;;;;;5014115;28;20041;-82
2022/04/16 08:47:05;;;;;;;6.28;3.17;;;13.60;39.20;;;;;;5013731;28;20504;-82
2022/04/16 08:49:31;;;;;;;10.93;3.60;;;14.40;42.30;;;;;;5014140;28;20117;-82
2022/04/16 08:51:57;;;;;;;6.43;2.83;;;14.00;28.90;;;;;;5013733;28;20376;-82
2022/04/16 08:54:23;;;;;;;4.97;2.70;;;13.70;24.40;;;;;;5013792;28;20038;-83
2022/04/16 08:56:49;;;;;;;8.32;3.33;;;13.40;29.10;;;;;;5013978;28;20037;-82
2022/04/16 08:59:14;;;;;;;5.15;2.00;;;13.50;31.40;;;;;;5014585;28;20050;-82
2022/04/16 09:01:40;;;;;;;5.10;2.33;;;14.00;27.50;;;;;;5013644;28;20550;-83
2022/04/16 09:04:06;;;;;;;6.63;2.70;;;13.80;20.70;;;;;;5013748;28;20042;-81
2022/04/16 09:06:31;;;;;;;5.95;2.92;;;13.00;22.10;;;;;;5013200;28;20377;-82
2022/04/16 09:09:07;;;;;;;5.22;2.95;;;13.00;25.70;;;;;;5013893;28;20061;-82
2022/04/16 09:11:32;;;;;;;6.00;2.10;;;13.10;23.50;;;;;;5013633;28;20053;-82
2022/04/16 09:13:58;;;;;;;5.38;2.17;;;13.40;23.70;;;;;;5013967;28;20038;-82
2022/04/16 09:16:24;;;;;;;4.20;2.00;;;13.10;22.40;;;;;;5013677;28;20045;-82
2022/04/16 09:18:54;;;;;;;8.25;2.42;;;13.50;21.70;;;;;;5013261;28;20050;-81
2022/04/16 09:21:25;;;;;;;6.18;2.55;;;13.40;23.30;;;;;;5013401;28;20061;-82
2022/04/16 09:23:56;;;;;;;4.57;1.90;;;13.30;25.30;;;;;;5014021;28;20504;-81
2022/04/16 09:26:35;;;;;;;5.43;2.00;;;13.50;19.80;;;;;;5017164;28;20139;-82
2022/04/16 09:29:09;;;;;;;6.38;1.33;;;13.80;16.00;;;;;;5018016;28;20053;-82
2022/04/16 09:31:38;;;;;;;3.00;1.30;;;14.30;15.30;;;;;;5017733;28;20042;-82
2022/04/16 09:34:05;;;;;;;4.78;1.52;;;14.00;10.90;;;;;;5024728;28;20056;-82
2022/04/16 09:36:31;;;;;;;4.53;1.67;;;14.20;10.70;;;;;;5035013;28;20029;-81
2022/04/16 09:39:05;;;;;;;5.63;1.60;;;13.40;9.50;;;;;;5034259;28;20052;-82
2022/04/16 09:41:35;;;;;;;2.55;1.15;;;14.10;12.60;;;;;;5032325;28;20049;-81
2022/04/16 09:44:01;;;;;;;3.10;1.60;;;13.70;8.60;;;;;;5019761;28;20066;-82
2022/04/16 09:46:29;;;;;;;4.95;1.63;;;13.20;9.50;;;;;;5018954;28;20049;-82
2022/04/16 09:49:04;;;;;;;3.70;1.50;;;12.80;11.70;;;;;;5018114;28;20128;-82
2022/04/16 09:51:34;;;;;;;3.78;1.45;;;13.10;11.60;;;;;;5018952;28;20046;-82
2022/04/16 09:54:04;;;;;;;2.50;1.15;;;13.20;10.80;;;;;;5018034;28;20038;-82
2022/04/16 09:56:33;;;;;;;7.40;1.20;;;13.50;6.70;;;;;;5017088;28;20447;-82
2022/04/16 09:59:02;;;;;;;2.60;1.10;;;12.90;6.70;;;;;;5016719;28;20053;-82
2022/04/16 10:01:28;;;;;;;3.35;0.90;;;12.90;6.70;;;;;;5016878;28;20046;-82
2022/04/16 10:03:56;;;;;;;3.35;0.80;;;13.10;5.70;;;;;;5017110;28;20049;-82
2022/04/16 10:06:22;;;;;;;2.20;1.13;;;13.40;5.40;;;;;;5016397;28;20044;-82
2022/04/16 10:08:50;;;;;;;2.55;1.05;;;13.20;4.80;;;;;;5014683;28;20125;-82
2022/04/16 10:11:21;;;;;;;1.95;0.73;;;13.20;6.50;;;;;;5016455;28;20069;-82
2022/04/16 10:13:58;;;;;;;2.00;0.73;;;13.30;5.40;;;;;;4998951;28;20077;-81
2022/04/16 10:16:54;;;;;;;0.75;0.52;;;13.20;1.00;;;;;;5015630;28;20073;-81
2022/04/16 10:19:20;;;;;;;1.25;0.60;;;13.40;1.00;;;;;;5015643;28;20050;-80
2022/04/16 10:21:45;;;;;;;6.10;0.70;;;13.20;1.00;;;;;;5015574;28;20052;-81
2022/04/16 10:24:11;;;;;;;2.88;0.93;;;13.50;1.00;;;;;;5016561;28;20484;-81
2022/04/16 10:26:43;;;;;;;4.00;0.43;;;13.60;1.00;;;;;;5015779;28;20454;-81
2022/04/16 10:29:08;;;;;;;1.40;0.70;;;13.40;1.00;;;;;;5015755;28;20050;-81
2022/04/16 10:31:36;;;;;;;0.68;0.40;;;13.60;1.00;;;;;;5015822;28;20046;-81
2022/04/16 10:34:08;;;;;;;0.88;0.40;;;13.60;1.00;;;;;;5031137;28;20084;-81
2022/04/16 10:36:48;;;;;;;1.20;0.55;;;13.70;1.00;;;;;;5015975;28;20057;-81
2022/04/16 10:39:18;;;;;;;1.38;0.47;;;14.00;1.00;;;;;;5016261;28;20042;-81
2022/04/16 10:42:04;;;;;;;0.63;0.40;;;14.00;1.00;;;;;;5016350;28;20095;-82
2022/04/16 10:44:42;;;;;;;1.52;0.60;;;14.40;1.00;;;;;;5016600;28;20053;-81
2022/04/16 10:47:13;;;;;;;3.38;0.80;;;14.40;1.00;;;;;;5016312;28;20046;-81
2022/04/16 10:49:42;;;;;;;3.22;0.98;;;14.80;1.00;;;;;;5015892;28;20042;-81
2022/04/16 10:52:21;;;;;;;2.90;0.82;;;14.70;1.00;;;;;;5015909;28;20053;-81
2022/04/16 10:54:47;;;;;;;6.90;1.10;;;13.90;1.00;;;;;;5015463;28;20048;-81
2022/04/16 10:57:21;;;;;;;1.50;0.90;;;13.90;1.00;;;;;;5015135;28;20045;-81
2022/04/16 10:59:47;;;;;;;2.53;1.15;;;14.40;1.00;;;;;;5015488;28;20053;-81
2022/04/16 11:02:23;;;;;;;3.72;1.27;;;14.00;1.00;;;;;;5015281;28;20208;-81
2022/04/16 11:05:02;;;;;;;3.58;0.57;;;14.10;1.00;;;;;;5015180;28;20050;-81
2022/04/16 11:07:35;;;;;;;3.08;0.98;;;14.10;1.00;;;;;;5015053;28;20107;-81
2022/04/16 11:10:09;;;;;;;1.98;0.70;;;14.10;1.00;;;;;;5015766;28;20080;-81
2022/04/16 11:12:40;;;;;;;1.17;0.50;;;14.10;1.00;;;;;;5015273;28;20042;-80
2022/04/16 11:15:13;;;;;;;1.73;0.75;;;13.80;1.00;;;;;;5014842;28;20077;-81
2022/04/16 11:17:39;;;;;;;2.70;0.80;;;14.10;1.00;;;;;;5015368;28;20153;-81
2022/04/16 11:20:06;;;;;;;3.75;1.08;;;14.20;1.00;;;;;;5014900;28;20117;-81
2022/04/16 11:22:35;;;;;;;2.33;1.15;;;14.30;1.00;;;;;;5014812;28;20143;-81
2022/04/16 11:25:07;;;;;;;2.33;0.70;;;14.30;1.00;;;;;;5014576;28;20046;-81
2022/04/16 11:36:01;;;;;;;4.32;0.57;;;15.40;1.00;;;;;;5014558;28;20516;-81
2022/04/16 11:38:35;;;;;;;2.40;0.70;;;15.10;1.00;;;;;;5014201;28;20042;-81
2022/04/16 11:41:06;;;;;;;2.95;0.88;;;14.70;1.00;;;;;;5014348;28;20041;-81
2022/04/16 11:43:33;;;;;;;1.70;0.70;;;15.10;1.00;;;;;;5014315;28;20064;-81
2022/04/16 11:46:01;;;;;;;2.50;0.80;;;15.50;1.00;;;;;;5014327;28;20480;-81
2022/04/16 11:48:28;;;;;;;1.95;0.82;;;15.60;1.00;;;;;;5013485;28;20067;-81
2022/04/16 11:50:53;;;;;;;1.10;0.55;;;15.70;1.00;;;;;;5014384;28;20053;-81
2022/04/16 11:53:19;;;;;;;2.10;0.70;;;16.10;1.00;;;;;;5014466;28;20038;-81
2022/04/16 11:55:46;;;;;;;4.15;0.85;;;16.10;1.00;;;;;;5013937;28;20112;-81
2022/04/16 11:58:12;;;;;;;1.27;0.65;;;15.50;1.00;;;;;;5014099;28;20139;-81
2022/04/16 12:00:51;;;;;;;2.35;0.70;;;15.20;1.00;;;;;;5014008;28;20085;-80
2022/04/16 12:03:17;;;;;;;5.30;0.75;;;15.50;1.00;;;;;;5012580;28;20045;-81
2022/04/16 12:05:43;;;;;;;2.97;0.88;;;16.20;1.00;;;;;;5013302;28;20034;-81
2022/04/16 12:08:10;;;;;;;0.82;0.50;;;16.80;1.00;;;;;;5014010;28;20041;-82
2022/04/16 12:10:37;;;;;;;2.28;0.90;;;16.80;1.00;;;;;;5013965;28;20076;-81
2022/04/16 12:13:13;;;;;;;1.65;0.82;;;16.80;1.00;;;;;;4996403;28;20042;-81
2022/04/16 12:15:39;;;;;;;;;;;17.10;1.00;;;;;;5013991;28;20042;-81
2022/04/16 12:18:10;;;;;;;2.60;0.98;;;16.90;1.00;;;;;;5029348;28;19922;-81
2022/04/16 12:20:41;;;;;;;2.95;0.82;;;17.20;1.00;;;;;;5013329;28;20052;-81
2022/04/16 12:23:10;;;;;;;3.40;1.13;;;17.30;1.00;;;;;;5013778;28;20125;-81
2022/04/16 12:25:41;;;;;;;5.32;1.77;;;17.70;1.00;;;;;;5013454;28;20519;-81
2022/04/16 12:28:11;;;;;;;3.78;1.38;;;18.30;1.00;;;;;;5028963;28;20056;-81
2022/04/16 12:30:48;;;;;;;2.58;0.82;;;17.70;1.00;;;;;;5013601;28;20088;-81
2022/04/16 12:33:13;;;;;;;2.08;0.70;;;17.30;1.00;;;;;;5013636;28;20050;-81
2022/04/16 12:35:44;;;;;;;1.75;0.80;;;16.80;1.00;;;;;;5013898;28;20069;-80
2022/04/16 12:38:14;;;;;;;2.00;0.82;;;16.30;1.00;;;;;;5014654;28;20038;-81
2022/04/16 12:40:41;;;;;;;2.35;0.77;;;16.90;1.00;;;;;;5013800;28;20045;-81
2022/04/16 12:43:09;;;;;;;1.95;0.95;;;17.70;1.00;;;;;;5013679;28;20050;-81
2022/04/16 12:45:35;;;;;;;2.60;0.60;;;17.90;1.00;;;;;;5013450;28;20480;-81
2022/04/16 12:48:00;;;;;;;2.03;0.82;;;18.30;1.00;;;;;;5013058;28;20238;-81
2022/04/16 12:50:27;;;;;;;3.47;0.90;;;17.70;1.00;;;;;;5013355;28;20041;-81
2022/04/16 12:52:54;;;;;;;3.20;1.30;;;17.90;1.00;;;;;;5013475;28;20578;-81
2022/04/16 12:55:20;;;;;;;2.17;1.00;;;17.90;1.00;;;;;;5013673;28;20128;-81
2022/04/16 12:57:46;;;;;;;3.83;1.02;;;18.20;1.00;;;;;;5013179;28;20046;-81
2022/04/16 13:00:13;;;;;;;1.85;0.90;;;18.00;1.00;;;;;;5016064;28;20042;-81
2022/04/16 13:02:42;;;;;;;4.03;0.80;;;17.80;1.00;;;;;;5017926;28;20482;-81
2022/04/16 13:05:09;;;;;;;3.47;0.85;;;17.80;1.00;;;;;;5032622;28;20084;-81
2022/04/16 13:07:35;;;;;;;4.20;0.95;;;17.30;1.00;;;;;;5017200;28;20507;-81